Time;durP1;ratioP1;P1;durP2;ratioP2;P2;SDS_P1;SDS_P2;PMS_P1;PMS_P2;Temp;Humidity;BMP_temperature;BMP_pressure;BME280_temperature;BME280_humidity;BME280_pressure;Samples;Min_cycle;Max_cycle;Signal;HPM_P1;HPM_P2
2020/12/22 00:00:00;;;;;;;2.30;2.10;;;;;;;;;;5018929;28;20301;-93
2020/12/22 00:02:27;;;;;;;2.95;2.08;;;;;;;;;;5018933;28;20215;-90
2020/12/22 00:04:57;;;;;;;2.15;2.05;;;;;;;;;;5019241;28;20221;-95
2020/12/22 00:07:25;;;;;;;2.90;2.70;;;;;;;;;;5018831;28;20300;-91
2020/12/22 00:10:00;;;;;;;2.20;2.00;;;;;;;;;;5018801;28;20203;-95
2020/12/22 00:12:31;;;;;;;2.08;1.88;;;;;;;;;;5018906;28;20210;-95
2020/12/22 00:14:59;;;;;;;2.20;2.10;;;;;;;;;;5018717;28;20199;-91
2020/12/22 00:17:26;;;;;;;1.95;1.73;;;;;;;;;;5017948;28;20580;-93
2020/12/22 00:19:55;;;;;;;1.88;1.77;;;;;;;;;;5018327;28;20689;-94
2020/12/22 00:22:23;;;;;;;1.90;1.80;;;;;;;;;;5018624;28;20195;-92
2020/12/22 00:24:50;;;;;;;1.80;1.70;;;;;;;;;;5018813;28;20196;-93
2020/12/22 00:27:17;;;;;;;2.17;2.03;;;;;;;;;;5018700;28;20268;-92
2020/12/22 00:29:44;;;;;;;1.67;1.58;;;;;;;;;;5018722;28;20253;-94
2020/12/22 00:32:11;;;;;;;2.05;1.95;;;;;;;;;;5018857;28;20451;-91
2020/12/22 00:34:38;;;;;;;2.08;1.95;;;;;;;;;;5018686;28;20282;-90
2020/12/22 00:37:05;;;;;;;2.08;1.98;;;;;;;;;;5017662;28;20219;-87
2020/12/22 00:39:33;;;;;;;1.98;1.88;;;;;;;;;;5018225;28;20203;-89
2020/12/22 00:42:00;;;;;;;1.30;1.30;;;;;;;;;;5018386;28;20195;-90
2020/12/22 00:44:27;;;;;;;1.88;1.77;;;;;;;;;;5018314;28;20209;-90
2020/12/22 00:46:55;;;;;;;1.52;1.50;;;;;;;;;;5018205;28;20534;-89
2020/12/22 00:49:23;;;;;;;1.80;1.70;;;;;;;;;;5017882;28;20205;-91
2020/12/22 00:51:49;;;;;;;1.30;1.30;;;;;;;;;;5018637;28;20261;-90
2020/12/22 00:54:16;;;;;;;1.27;1.27;;;;;;;;;;5018437;28;20191;-89
2020/12/22 00:56:48;;;;;;;1.02;1.02;;;;;;;;;;5018377;28;20195;-90
2020/12/22 00:59:15;;;;;;;1.23;1.13;;;;;;;;;;5018144;28;20301;-90
2020/12/22 01:01:42;;;;;;;1.45;1.35;;;;;;;;;;5018204;28;20179;-89
2020/12/22 01:04:09;;;;;;;2.13;1.80;;;;;;;;;;5018706;28;20195;-89
2020/12/22 01:06:38;;;;;;;1.65;1.55;;;;;;;;;;5017725;28;20235;-86
2020/12/22 01:09:06;;;;;;;1.90;1.10;;;;;;;;;;5018273;28;20202;-86
2020/12/22 01:11:37;;;;;;;0.95;0.95;;;;;;;;;;5017878;28;20599;-86
2020/12/22 01:14:06;;;;;;;1.52;1.42;;;;;;;;;;5018044;28;20214;-87
2020/12/22 01:16:33;;;;;;;1.33;1.30;;;;;;;;;;5017808;28;20549;-87
2020/12/22 01:19:00;;;;;;;1.10;1.10;;;;;;;;;;5018157;28;20282;-87
2020/12/22 01:21:27;;;;;;;1.63;1.52;;;;;;;;;;5018004;28;20471;-88
2020/12/22 01:23:54;;;;;;;1.05;1.05;;;;;;;;;;5018095;28;20229;-88
2020/12/22 01:26:23;;;;;;;1.10;1.00;;;;;;;;;;5018092;28;20192;-88
2020/12/22 01:28:50;;;;;;;1.30;1.20;;;;;;;;;;5017916;28;20188;-88
2020/12/22 01:31:23;;;;;;;1.83;1.73;;;;;;;;;;5017895;28;20184;-89
2020/12/22 01:33:50;;;;;;;1.10;1.10;;;;;;;;;;5018035;28;20440;-89
2020/12/22 01:36:17;;;;;;;1.60;1.50;;;;;;;;;;5017845;28;20223;-89
2020/12/22 01:38:44;;;;;;;1.50;1.40;;;;;;;;;;5018026;28;20624;-89
2020/12/22 01:41:11;;;;;;;1.15;1.15;;;;;;;;;;5017666;28;20647;-89
2020/12/22 01:43:38;;;;;;;1.10;1.10;;;;;;;;;;5019751;28;20209;-91
2020/12/22 01:46:05;;;;;;;1.30;1.25;;;;;;;;;;5020446;28;20187;-89
2020/12/22 01:48:34;;;;;;;1.00;1.00;;;;;;;;;;5020561;28;20183;-89
2020/12/22 01:51:01;;;;;;;1.20;1.20;;;;;;;;;;5019943;28;20525;-90
2020/12/22 01:53:28;;;;;;;2.28;1.38;;;;;;;;;;5021340;28;20290;-89
2020/12/22 01:55:55;;;;;;;1.50;1.40;;;;;;;;;;5016460;28;20201;-88
2020/12/22 01:58:23;;;;;;;1.08;1.08;;;;;;;;;;5020535;28;20183;-94
2020/12/22 02:00:50;;;;;;;1.38;1.33;;;;;;;;;;5021808;28;20238;-93
2020/12/22 02:03:17;;;;;;;1.00;1.00;;;;;;;;;;5021457;28;20534;-92
2020/12/22 02:05:45;;;;;;;1.45;1.35;;;;;;;;;;5021074;28;20196;-94
2020/12/22 02:08:12;;;;;;;1.30;1.25;;;;;;;;;;5001614;28;20351;-93
2020/12/22 02:10:51;;;;;;;1.83;1.73;;;;;;;;;;5001677;28;20203;-94
2020/12/22 02:13:19;;;;;;;0.90;0.90;;;;;;;;;;4997356;28;20210;-95
2020/12/22 02:15:46;;;;;;;1.50;1.40;;;;;;;;;;5001153;28;20207;-94
2020/12/22 02:18:15;;;;;;;1.17;1.17;;;;;;;;;;5000211;28;20217;-95
2020/12/22 02:20:45;;;;;;;1.35;1.25;;;;;;;;;;4999721;28;20306;-93
2020/12/22 02:23:13;;;;;;;1.48;1.35;;;;;;;;;;4999941;28;20350;-94
2020/12/22 02:25:48;;;;;;;1.83;1.73;;;;;;;;;;5004607;28;20302;-94
2020/12/22 02:28:17;;;;;;;1.30;1.20;;;;;;;;;;5020705;28;20206;-93
2020/12/22 02:30:44;;;;;;;1.42;1.33;;;;;;;;;;5021061;28;20199;-95
2020/12/22 02:33:12;;;;;;;1.38;1.30;;;;;;;;;;5020724;28;20219;-93
2020/12/22 02:35:40;;;;;;;1.10;1.10;;;;;;;;;;5020633;28;20195;-92
2020/12/22 02:38:07;;;;;;;1.02;1.02;;;;;;;;;;5020508;28;20268;-92
2020/12/22 02:40:35;;;;;;;1.17;1.15;;;;;;;;;;5020375;28;20253;-93
2020/12/22 02:43:10;;;;;;;1.15;1.15;;;;;;;;;;5020945;28;20568;-90
2020/12/22 02:45:38;;;;;;;1.48;1.38;;;;;;;;;;5020496;28;20205;-93
2020/12/22 02:48:05;;;;;;;0.93;0.93;;;;;;;;;;5020587;28;20218;-92
2020/12/22 02:50:32;;;;;;;1.10;1.10;;;;;;;;;;5020802;28;20195;-92
2020/12/22 02:52:59;;;;;;;1.52;0.90;;;;;;;;;;5020076;28;20273;-92
2020/12/22 02:55:26;;;;;;;1.20;1.20;;;;;;;;;;5020309;28;20199;-91
2020/12/22 02:57:54;;;;;;;1.00;1.00;;;;;;;;;;5020094;28;20203;-92
2020/12/22 03:00:22;;;;;;;0.80;0.80;;;;;;;;;;5020034;28;20574;-92
2020/12/22 03:02:52;;;;;;;0.90;0.90;;;;;;;;;;5020281;28;20199;-93
2020/12/22 03:05:19;;;;;;;0.90;0.90;;;;;;;;;;5020347;28;20207;-92
2020/12/22 03:07:46;;;;;;;1.23;1.13;;;;;;;;;;5019558;28;20236;-92
2020/12/22 03:10:15;;;;;;;1.00;1.00;;;;;;;;;;5020151;28;20195;-93
2020/12/22 03:12:42;;;;;;;1.00;1.00;;;;;;;;;;5019731;28;20190;-91
2020/12/22 03:15:10;;;;;;;1.38;1.20;;;;;;;;;;5020258;28;20199;-92
2020/12/22 03:17:38;;;;;;;1.10;1.10;;;;;;;;;;5019798;28;20286;-91
2020/12/22 03:20:06;;;;;;;1.10;1.10;;;;;;;;;;5020049;28;20229;-93
2020/12/22 03:22:34;;;;;;;1.65;1.55;;;;;;;;;;5020136;28;20203;-91
2020/12/22 03:25:02;;;;;;;1.10;1.10;;;;;;;;;;5020333;28;20217;-91
2020/12/22 03:27:29;;;;;;;1.38;1.25;;;;;;;;;;5019963;28;20207;-92
2020/12/22 03:29:56;;;;;;;1.50;1.40;;;;;;;;;;5020036;28;20508;-91
2020/12/22 03:32:24;;;;;;;1.60;1.50;;;;;;;;;;5019877;28;20463;-92
2020/12/22 03:34:51;;;;;;;1.30;1.30;;;;;;;;;;5019808;28;20203;-93
2020/12/22 03:37:20;;;;;;;1.60;1.50;;;;;;;;;;5019311;28;20673;-94
2020/12/22 03:39:49;;;;;;;1.70;1.55;;;;;;;;;;5020026;28;20214;-90
2020/12/22 03:42:16;;;;;;;1.55;1.42;;;;;;;;;;5019423;28;20203;-91
2020/12/22 03:44:43;;;;;;;1.52;1.42;;;;;;;;;;5019349;28;20189;-92
2020/12/22 03:47:11;;;;;;;1.88;1.75;;;;;;;;;;5019241;28;20471;-92
2020/12/22 03:49:39;;;;;;;1.70;1.60;;;;;;;;;;5018929;28;20572;-93
2020/12/22 03:52:07;;;;;;;1.60;1.50;;;;;;;;;;5019375;28;20310;-92
2020/12/22 03:54:35;;;;;;;1.42;1.35;;;;;;;;;;4985744;28;20207;-91
2020/12/22 03:57:02;;;;;;;1.00;1.00;;;;;;;;;;5019153;28;20201;-92
2020/12/22 03:59:29;;;;;;;1.38;1.30;;;;;;;;;;5019485;28;20195;-93
2020/12/22 04:01:56;;;;;;;1.25;1.25;;;;;;;;;;5018848;28;20233;-91
2020/12/22 04:04:24;;;;;;;1.40;1.30;;;;;;;;;;5019174;28;20217;-91
2020/12/22 04:07:06;;;;;;;1.10;1.10;;;;;;;;;;5014503;28;20273;-92
2020/12/22 04:09:33;;;;;;;1.40;1.30;;;;;;;;;;5019273;28;20191;-93
2020/12/22 04:12:00;;;;;;;1.40;1.30;;;;;;;;;;5019430;28;20549;-93
2020/12/22 04:14:27;;;;;;;0.82;0.80;;;;;;;;;;5019410;28;20259;-93
2020/12/22 04:16:54;;;;;;;1.23;1.17;;;;;;;;;;5019151;28;20195;-93
2020/12/22 04:19:21;;;;;;;1.00;1.00;;;;;;;;;;5019029;28;20198;-93
2020/12/22 04:21:49;;;;;;;1.50;1.40;;;;;;;;;;5018708;28;20357;-92
2020/12/22 04:24:17;;;;;;;0.93;0.90;;;;;;;;;;5019045;28;20203;-93
2020/12/22 04:26:44;;;;;;;0.80;0.80;;;;;;;;;;5018624;28;20199;-94
2020/12/22 04:29:11;;;;;;;0.82;0.82;;;;;;;;;;5019041;28;20268;-93
2020/12/22 04:31:38;;;;;;;0.73;0.73;;;;;;;;;;5018619;28;20261;-94
2020/12/22 04:34:05;;;;;;;0.80;0.80;;;;;;;;;;5018684;28;20203;-92
2020/12/22 04:36:32;;;;;;;0.65;0.65;;;;;;;;;;5018744;28;20531;-93
2020/12/22 04:38:59;;;;;;;0.80;0.60;;;;;;;;;;5018613;28;20199;-92
2020/12/22 04:41:27;;;;;;;0.80;0.80;;;;;;;;;;5018806;28;20229;-93
2020/12/22 04:43:54;;;;;;;0.80;0.80;;;;;;;;;;5018844;28;20191;-94
2020/12/22 04:46:23;;;;;;;1.05;1.05;;;;;;;;;;5018435;28;20179;-95
2020/12/22 04:48:56;;;;;;;1.05;1.05;;;;;;;;;;5018863;28;20217;-90
2020/12/22 04:51:24;;;;;;;0.70;0.70;;;;;;;;;;5018916;28;20477;-93
2020/12/22 04:53:53;;;;;;;1.45;0.82;;;;;;;;;;5019013;28;20199;-94
2020/12/22 04:56:22;;;;;;;0.80;0.80;;;;;;;;;;5018458;28;20207;-93
2020/12/22 04:58:49;;;;;;;0.70;0.70;;;;;;;;;;5018202;28;20564;-92
2020/12/22 05:01:17;;;;;;;0.63;0.63;;;;;;;;;;5018425;28;20215;-93
2020/12/22 05:03:50;;;;;;;0.70;0.70;;;;;;;;;;5018534;28;20203;-92
2020/12/22 05:06:20;;;;;;;0.60;0.60;;;;;;;;;;5018571;28;20253;-92
2020/12/22 05:08:51;;;;;;;1.40;0.80;;;;;;;;;;5018700;28;20458;-92
2020/12/22 05:11:18;;;;;;;1.15;0.75;;;;;;;;;;5018447;28;20268;-90
2020/12/22 05:13:47;;;;;;;0.70;0.70;;;;;;;;;;5018751;28;20264;-91
2020/12/22 05:16:15;;;;;;;0.60;0.60;;;;;;;;;;5018137;28;20270;-91
2020/12/22 05:18:42;;;;;;;0.40;0.40;;;;;;;;;;5021003;28;20179;-92
2020/12/22 05:21:09;;;;;;;0.63;0.63;;;;;;;;;;5021830;28;20230;-93
2020/12/22 05:23:36;;;;;;;0.50;0.50;;;;;;;;;;5022377;28;20226;-92
2020/12/22 05:26:05;;;;;;;0.45;0.45;;;;;;;;;;5022370;28;20199;-91
2020/12/22 05:28:33;;;;;;;0.50;0.50;;;;;;;;;;5021925;28;20199;-92
2020/12/22 05:31:00;;;;;;;0.50;0.50;;;;;;;;;;5022077;28;20287;-92
2020/12/22 05:33:28;;;;;;;0.60;0.60;;;;;;;;;;5022213;28;20269;-89
2020/12/22 05:35:57;;;;;;;0.70;0.70;;;;;;;;;;5021714;28;20199;-92
2020/12/22 05:38:26;;;;;;;0.60;0.60;;;;;;;;;;5021903;28;20274;-93
2020/12/22 05:40:53;;;;;;;0.55;0.55;;;;;;;;;;5021866;28;20570;-93
2020/12/22 05:43:20;;;;;;;0.55;0.55;;;;;;;;;;5022043;28;20207;-92
2020/12/22 05:45:50;;;;;;;0.65;0.65;;;;;;;;;;5021247;28;20573;-92
2020/12/22 05:48:17;;;;;;;0.60;0.60;;;;;;;;;;5021547;28;20209;-94
2020/12/22 05:50:51;;;;;;;0.65;0.65;;;;;;;;;;5021561;28;20195;-93
2020/12/22 05:53:24;;;;;;;0.70;0.70;;;;;;;;;;5021446;28;20211;-91
2020/12/22 05:55:51;;;;;;;0.40;0.40;;;;;;;;;;5021317;28;20176;-92
2020/12/22 05:58:19;;;;;;;0.40;0.40;;;;;;;;;;5021406;28;20210;-92
2020/12/22 06:00:46;;;;;;;0.35;0.35;;;;;;;;;;5021603;28;20298;-91
2020/12/22 06:03:15;;;;;;;1.38;0.60;;;;;;;;;;5021441;28;20188;-92
2020/12/22 06:05:43;;;;;;;0.40;0.40;;;;;;;;;;5020966;28;20284;-92
2020/12/22 06:08:12;;;;;;;0.55;0.55;;;;;;;;;;5021551;28;20225;-91
2020/12/22 06:10:41;;;;;;;0.40;0.40;;;;;;;;;;5021166;28;20565;-93
2020/12/22 06:13:11;;;;;;;0.60;0.60;;;;;;;;;;5021404;28;20207;-93
2020/12/22 06:15:39;;;;;;;0.50;0.50;;;;;;;;;;5021127;28;20179;-93
2020/12/22 06:18:07;;;;;;;0.63;0.63;;;;;;;;;;5021507;28;20265;-92
2020/12/22 06:20:34;;;;;;;0.75;0.50;;;;;;;;;;5021349;28;20210;-91
2020/12/22 06:23:03;;;;;;;0.60;0.60;;;;;;;;;;5020594;28;20225;-92
2020/12/22 06:25:31;;;;;;;0.60;0.60;;;;;;;;;;5020876;28;20187;-93
2020/12/22 06:27:59;;;;;;;0.80;0.80;;;;;;;;;;5020479;28;20253;-92
2020/12/22 06:30:33;;;;;;;1.25;1.00;;;;;;;;;;5020708;28;20282;-92
2020/12/22 06:33:18;;;;;;;0.65;0.65;;;;;;;;;;5020487;28;20564;-91
2020/12/22 06:36:04;;;;;;;0.52;0.52;;;;;;;;;;5020578;28;20203;-91
2020/12/22 06:38:54;;;;;;;0.47;0.47;;;;;;;;;;5020644;28;20203;-91
2020/12/22 06:41:44;;;;;;;0.60;0.60;;;;;;;;;;5020535;28;20218;-91
2020/12/22 06:44:29;;;;;;;0.77;0.77;;;;;;;;;;4980349;28;20220;-92
2020/12/22 06:46:58;;;;;;;0.90;0.60;;;;;;;;;;4980364;28;20558;-94
2020/12/22 06:49:53;;;;;;;0.60;0.60;;;;;;;;;;4980379;28;20210;-91
2020/12/22 06:52:37;;;;;;;0.60;0.60;;;;;;;;;;4980268;28;20284;-91
2020/12/22 06:55:06;;;;;;;0.60;0.60;;;;;;;;;;4980065;28;20559;-91
2020/12/22 06:57:48;;;;;;;0.50;0.50;;;;;;;;;;4980184;28;20208;-92
2020/12/22 07:00:38;;;;;;;0.50;0.50;;;;;;;;;;4979976;28;20204;-92
2020/12/22 07:03:12;;;;;;;0.40;0.40;;;;;;;;;;4979662;28;20229;-92
2020/12/22 07:05:40;;;;;;;0.70;0.70;;;;;;;;;;4979686;28;20224;-92
2020/12/22 07:08:08;;;;;;;0.70;0.70;;;;;;;;;;4979875;28;20209;-91
2020/12/22 07:10:40;;;;;;;0.50;0.50;;;;;;;;;;4979752;28;20284;-92
2020/12/22 07:13:11;;;;;;;0.52;0.52;;;;;;;;;;4979777;28;20223;-91
2020/12/22 07:15:45;;;;;;;0.60;0.60;;;;;;;;;;4979763;28;20213;-92
2020/12/22 07:18:15;;;;;;;0.50;0.50;;;;;;;;;;4979913;28;20188;-93
2020/12/22 07:20:44;;;;;;;0.57;0.57;;;;;;;;;;4988917;28;20199;-93
2020/12/22 07:23:12;;;;;;;0.50;0.50;;;;;;;;;;5019727;28;20227;-93
2020/12/22 07:25:41;;;;;;;0.70;0.70;;;;;;;;;;5019810;28;20218;-94
2020/12/22 07:28:12;;;;;;;0.60;0.60;;;;;;;;;;5019863;28;20524;-93
2020/12/22 07:30:39;;;;;;;0.55;0.55;;;;;;;;;;5019764;28;20250;-93
2020/12/22 07:33:06;;;;;;;0.65;0.65;;;;;;;;;;5019986;28;20282;-92
2020/12/22 07:35:34;;;;;;;0.32;0.32;;;;;;;;;;5019603;28;20291;-92
2020/12/22 07:38:06;;;;;;;0.45;0.45;;;;;;;;;;5019741;28;20294;-92
2020/12/22 07:40:35;;;;;;;0.60;0.60;;;;;;;;;;5019178;28;20300;-91
2020/12/22 07:43:07;;;;;;;0.55;0.50;;;;;;;;;;5019316;28;20592;-91
2020/12/22 07:45:35;;;;;;;0.60;0.60;;;;;;;;;;5019833;28;20504;-92
2020/12/22 07:48:06;;;;;;;0.68;0.60;;;;;;;;;;5019836;28;20210;-91
2020/12/22 07:50:34;;;;;;;1.10;1.00;;;;;;;;;;5019470;28;20282;-91
2020/12/22 07:53:01;;;;;;;3.03;1.05;;;;;;;;;;5019430;28;20199;-92
2020/12/22 07:55:37;;;;;;;1.75;0.68;;;;;;;;;;5019258;28;20620;-91
2020/12/22 07:58:05;;;;;;;0.80;0.80;;;;;;;;;;5019239;28;20206;-93
2020/12/22 08:00:33;;;;;;;0.60;0.60;;;;;;;;;;5019167;28;20282;-92
2020/12/22 08:03:16;;;;;;;1.08;0.60;;;;;;;;;;5018886;28;20593;-90
2020/12/22 08:06:00;;;;;;;0.63;0.50;;;;;;;;;;5018942;28;20231;-92
2020/12/22 08:08:27;;;;;;;1.20;0.43;;;;;;;;;;5019382;28;20281;-93
2020/12/22 08:10:57;;;;;;;0.57;0.57;;;;;;;;;;5019698;28;20199;-93
2020/12/22 08:13:31;;;;;;;0.40;0.40;;;;;;;;;;5021135;28;20205;-94
2020/12/22 08:16:09;;;;;;;1.23;1.13;;;;;;;;;;5032432;28;20259;-94
2020/12/22 08:18:36;;;;;;;0.70;0.70;;;;;;;;;;5024859;28;20206;-93
2020/12/22 08:21:11;;;;;;;0.40;0.40;;;;;;;;;;5023446;28;20285;-95
2020/12/22 08:23:39;;;;;;;0.60;0.60;;;;;;;;;;5021349;28;20222;-95
2020/12/22 08:26:07;;;;;;;0.52;0.52;;;;;;;;;;5022769;28;20259;-95
2020/12/22 08:28:52;;;;;;;0.40;0.40;;;;;;;;;;5020647;28;20278;-94
2020/12/22 08:31:59;;;;;;;;;;;;;;;;;;;;;
2020/12/22 09:10:49;;;;;;;1.17;1.08;;;;;;;;;;4671076;30;20228;-91
2020/12/22 09:13:16;;;;;;;1.42;1.33;;;;;;;;;;4754308;30;20228;-90
2020/12/22 09:15:59;;;;;;;0.70;0.70;;;;;;;;;;4795338;29;20281;-89
2020/12/22 09:18:41;;;;;;;;;;;;;;;;;;;;;
2020/12/22 09:21:08;;;;;;;0.45;0.45;;;;;;;;;;4813022;29;20204;-89
2020/12/22 09:23:45;;;;;;;0.50;0.50;;;;;;;;;;4840238;29;20225;-89
2020/12/22 09:26:13;;;;;;;0.60;0.57;;;;;;;;;;4906573;29;20261;-89
2020/12/22 09:28:40;;;;;;;0.70;0.70;;;;;;;;;;4957369;28;20208;-89
2020/12/22 09:31:07;;;;;;;0.65;0.65;;;;;;;;;;4981733;28;20255;-92
2020/12/22 09:33:48;;;;;;;0.80;0.80;;;;;;;;;;5016913;28;20278;-94
2020/12/22 09:36:15;;;;;;;0.80;0.80;;;;;;;;;;5021775;28;20234;-92
2020/12/22 09:38:44;;;;;;;0.73;0.50;;;;;;;;;;5022647;28;20199;-94
2020/12/22 09:41:40;;;;;;;0.50;0.50;;;;;;;;;;5021865;28;20203;-94
2020/12/22 09:44:11;;;;;;;0.55;0.55;;;;;;;;;;5018018;28;20226;-95
2020/12/22 09:47:43;;;;;;;0.93;0.82;;;;;;;;;;5022618;28;20294;-94
2020/12/22 09:50:35;;;;;;;0.88;0.60;;;;;;;;;;5021961;28;20294;-94
2020/12/22 09:53:05;;;;;;;0.50;0.50;;;;;;;;;;5021261;28;20599;-93
2020/12/22 09:55:50;;;;;;;0.45;0.45;;;;;;;;;;5022246;28;20198;-94
2020/12/22 10:02:03;;;;;;;2.28;0.77;;;;;;;;;;5022043;28;20213;-94
2020/12/22 10:05:06;;;;;;;0.55;0.55;;;;;;;;;;5021408;28;20488;-93
2020/12/22 10:08:51;;;;;;;0.85;0.70;;;;;;;;;;4978397;28;20332;-95
2020/12/22 10:11:21;;;;;;;1.70;1.02;;;;;;;;;;4981563;28;20235;-94
2020/12/22 10:18:09;;;;;;;1.20;0.70;;;;;;;;;;4867417;29;20275;-95
2020/12/22 10:20:37;;;;;;;2.17;0.93;;;;;;;;;;4981096;28;20216;-95
2020/12/22 10:23:04;;;;;;;0.50;0.50;;;;;;;;;;4982665;28;20307;-94
2020/12/22 10:25:48;;;;;;;1.65;0.70;;;;;;;;;;4980347;28;20295;-93
2020/12/22 10:28:15;;;;;;;2.15;0.80;;;;;;;;;;4981068;28;20322;-94
2020/12/22 10:34:14;;;;;;;0.63;0.63;;;;;;;;;;4967469;28;20228;-95
2020/12/22 10:37:01;;;;;;;0.77;0.60;;;;;;;;;;4980106;28;20220;-94
2020/12/22 10:39:48;;;;;;;0.63;0.63;;;;;;;;;;4978857;28;20231;-95
2020/12/22 10:45:28;;;;;;;;;;;;;;;;;;;;;
2020/12/22 10:48:42;;;;;;;0.60;0.60;;;;;;;;;;4980089;28;20208;-95
2020/12/22 10:51:31;;;;;;;0.82;0.65;;;;;;;;;;4980291;28;20204;-93
2020/12/22 10:54:41;;;;;;;0.68;0.65;;;;;;;;;;4980265;28;20475;-93
2020/12/22 10:57:17;;;;;;;0.75;0.60;;;;;;;;;;4977579;28;20213;-93
2020/12/22 10:59:44;;;;;;;1.13;0.70;;;;;;;;;;4976185;28;20208;-92
2020/12/22 11:02:21;;;;;;;2.10;1.10;;;;;;;;;;4983005;28;20223;-93
2020/12/22 11:04:51;;;;;;;0.95;0.82;;;;;;;;;;5000457;28;20490;-92
2020/12/22 11:07:22;;;;;;;1.38;0.60;;;;;;;;;;5000482;28;20546;-91
2020/12/22 11:09:49;;;;;;;0.55;0.55;;;;;;;;;;5000622;28;20223;-91
2020/12/22 11:12:16;;;;;;;0.47;0.47;;;;;;;;;;5000702;28;20445;-91
2020/12/22 11:14:44;;;;;;;0.70;0.70;;;;;;;;;;4999733;28;20232;-91
2020/12/22 11:17:14;;;;;;;0.88;0.88;;;;;;;;;;5000056;28;20203;-89
2020/12/22 11:19:41;;;;;;;0.95;0.82;;;;;;;;;;5000228;28;20204;-92
2020/12/22 11:22:08;;;;;;;0.85;0.85;;;;;;;;;;5000170;28;20195;-92
2020/12/22 11:24:37;;;;;;;0.95;0.70;;;;;;;;;;4999880;28;20227;-91
2020/12/22 11:27:07;;;;;;;0.60;0.60;;;;;;;;;;4999675;28;20569;-92
2020/12/22 11:29:34;;;;;;;1.27;1.00;;;;;;;;;;5000179;28;20203;-88
2020/12/22 11:32:01;;;;;;;1.60;0.75;;;;;;;;;;4999514;28;20219;-86
2020/12/22 11:34:28;;;;;;;0.70;0.70;;;;;;;;;;4999560;28;20207;-87
2020/12/22 11:36:56;;;;;;;1.13;0.60;;;;;;;;;;4999646;28;20227;-88
2020/12/22 11:39:23;;;;;;;0.88;0.88;;;;;;;;;;5009546;28;20297;-88
2020/12/22 11:41:51;;;;;;;0.90;0.90;;;;;;;;;;5019026;28;20278;-89
2020/12/22 11:44:18;;;;;;;1.08;0.80;;;;;;;;;;5018538;28;20261;-86
2020/12/22 11:46:46;;;;;;;0.52;0.52;;;;;;;;;;5018590;28;20285;-88
2020/12/22 11:49:14;;;;;;;0.70;0.70;;;;;;;;;;5019054;28;20608;-89
2020/12/22 11:51:41;;;;;;;1.20;1.10;;;;;;;;;;5019477;28;20202;-89
2020/12/22 11:54:08;;;;;;;1.02;0.90;;;;;;;;;;5019297;28;20218;-88
2020/12/22 11:56:35;;;;;;;0.85;0.85;;;;;;;;;;5018683;28;20317;-88
2020/12/22 11:59:03;;;;;;;1.00;0.90;;;;;;;;;;5015599;28;20211;-86
2020/12/22 12:01:31;;;;;;;1.00;0.90;;;;;;;;;;5018209;28;20195;-87
2020/12/22 12:03:58;;;;;;;0.80;0.80;;;;;;;;;;5012182;28;20258;-87
2020/12/22 12:06:25;;;;;;;1.00;0.98;;;;;;;;;;5017756;28;20322;-87
2020/12/22 12:08:52;;;;;;;0.75;0.75;;;;;;;;;;5018009;28;20273;-85
2020/12/22 12:11:19;;;;;;;0.90;0.90;;;;;;;;;;5018239;28;20195;-85
2020/12/22 12:13:46;;;;;;;0.88;0.88;;;;;;;;;;5018156;28;20195;-85
2020/12/22 12:16:18;;;;;;;0.50;0.50;;;;;;;;;;5017694;28;20219;-88
2020/12/22 12:18:45;;;;;;;1.08;1.00;;;;;;;;;;5018296;28;20206;-88
2020/12/22 12:21:15;;;;;;;1.10;0.85;;;;;;;;;;5018243;28;20612;-86
2020/12/22 12:23:43;;;;;;;0.73;0.73;;;;;;;;;;5018434;28;20211;-88
2020/12/22 12:26:10;;;;;;;0.80;0.80;;;;;;;;;;5018264;28;20272;-86
2020/12/22 12:28:38;;;;;;;0.70;0.70;;;;;;;;;;5019084;28;20269;-87
2020/12/22 12:31:06;;;;;;;0.60;0.60;;;;;;;;;;5019344;28;20199;-87
2020/12/22 12:33:34;;;;;;;0.70;0.70;;;;;;;;;;5020111;28;20204;-87
2020/12/22 12:36:02;;;;;;;0.65;0.65;;;;;;;;;;5019104;28;20203;-88
2020/12/22 12:38:29;;;;;;;0.63;0.63;;;;;;;;;;5018416;28;20526;-87
2020/12/22 12:40:56;;;;;;;0.80;0.80;;;;;;;;;;5018222;28;20175;-87
2020/12/22 12:43:23;;;;;;;0.70;0.70;;;;;;;;;;5018636;28;20472;-88
2020/12/22 12:45:50;;;;;;;0.77;0.77;;;;;;;;;;5018847;28;20290;-87
2020/12/22 12:48:18;;;;;;;1.30;0.77;;;;;;;;;;5018970;28;20202;-87
2020/12/22 12:50:46;;;;;;;0.65;0.65;;;;;;;;;;5018401;28;20282;-87
2020/12/22 12:53:13;;;;;;;0.90;0.90;;;;;;;;;;5018810;28;20260;-87
2020/12/22 12:55:40;;;;;;;0.90;0.90;;;;;;;;;;5018554;28;20207;-86
2020/12/22 12:58:07;;;;;;;0.80;0.80;;;;;;;;;;5019133;28;20452;-86
2020/12/22 13:00:34;;;;;;;0.90;0.90;;;;;;;;;;5019149;28;20215;-87
2020/12/22 13:03:01;;;;;;;0.68;0.68;;;;;;;;;;5018816;28;20248;-87
2020/12/22 13:05:28;;;;;;;0.80;0.80;;;;;;;;;;5017935;28;20599;-87
2020/12/22 13:07:56;;;;;;;0.90;0.90;;;;;;;;;;5018025;28;20227;-87
2020/12/22 13:10:23;;;;;;;0.63;0.63;;;;;;;;;;5018827;28;20237;-87
2020/12/22 13:12:50;;;;;;;0.80;0.80;;;;;;;;;;5018714;28;20191;-87
2020/12/22 13:15:17;;;;;;;0.70;0.70;;;;;;;;;;5017999;28;20194;-87
2020/12/22 13:17:44;;;;;;;0.80;0.80;;;;;;;;;;5018780;28;20199;-87
2020/12/22 13:20:11;;;;;;;0.70;0.70;;;;;;;;;;5018664;28;20222;-86
2020/12/22 13:22:38;;;;;;;0.80;0.80;;;;;;;;;;5018384;28;20175;-86
2020/12/22 13:25:06;;;;;;;0.70;0.70;;;;;;;;;;5018517;28;20273;-87
2020/12/22 13:27:34;;;;;;;2.42;2.03;;;;;;;;;;5018670;28;20212;-87
2020/12/22 13:30:00;;;;;;;0.70;0.70;;;;;;;;;;5017870;28;20278;-87
2020/12/22 13:32:27;;;;;;;0.70;0.70;;;;;;;;;;5018500;28;20199;-87
2020/12/22 13:34:54;;;;;;;0.73;0.70;;;;;;;;;;5017723;28;20189;-86
2020/12/22 13:37:21;;;;;;;3.08;0.80;;;;;;;;;;5017777;28;20223;-86
2020/12/22 13:39:48;;;;;;;0.80;0.80;;;;;;;;;;5021278;28;20195;-86
2020/12/22 13:42:16;;;;;;;0.77;0.77;;;;;;;;;;4981080;28;20220;-87
2020/12/22 13:44:43;;;;;;;0.90;0.90;;;;;;;;;;4981484;28;20500;-87
2020/12/22 13:47:10;;;;;;;1.15;0.80;;;;;;;;;;4981897;28;20208;-87
2020/12/22 13:49:37;;;;;;;0.60;0.60;;;;;;;;;;4981631;28;20200;-86
2020/12/22 13:52:04;;;;;;;0.70;0.70;;;;;;;;;;4981570;28;20434;-86
2020/12/22 13:54:31;;;;;;;0.90;0.90;;;;;;;;;;4981785;28;20440;-86
2020/12/22 13:56:58;;;;;;;1.10;0.90;;;;;;;;;;4980832;28;20224;-86
2020/12/22 13:59:26;;;;;;;0.70;0.70;;;;;;;;;;4984919;28;20207;-86
2020/12/22 14:01:53;;;;;;;1.00;0.80;;;;;;;;;;5021990;28;20282;-87
2020/12/22 14:04:20;;;;;;;0.90;0.70;;;;;;;;;;5021955;28;20445;-86
2020/12/22 14:06:47;;;;;;;0.60;0.60;;;;;;;;;;5020885;28;20296;-87
2020/12/22 14:09:14;;;;;;;0.85;0.85;;;;;;;;;;5021143;28;20211;-87
2020/12/22 14:11:41;;;;;;;0.90;0.80;;;;;;;;;;5021591;28;20187;-87
2020/12/22 14:14:08;;;;;;;0.68;0.65;;;;;;;;;;5021072;28;20451;-87
2020/12/22 14:16:36;;;;;;;3.50;0.70;;;;;;;;;;5021184;28;20217;-86
2020/12/22 14:19:03;;;;;;;0.45;0.40;;;;;;;;;;5020656;28;20270;-86
2020/12/22 14:21:30;;;;;;;0.73;0.73;;;;;;;;;;5021028;28;20281;-87
2020/12/22 14:23:57;;;;;;;0.60;0.60;;;;;;;;;;5020840;28;20203;-86
2020/12/22 14:26:27;;;;;;;0.60;0.60;;;;;;;;;;5021502;28;20203;-86
2020/12/22 14:28:55;;;;;;;0.85;0.85;;;;;;;;;;5021522;28;20234;-86
2020/12/22 14:31:22;;;;;;;1.83;0.70;;;;;;;;;;5021487;28;20286;-86
2020/12/22 14:33:50;;;;;;;0.60;0.60;;;;;;;;;;5021191;28;20179;-86
2020/12/22 14:36:20;;;;;;;1.60;0.80;;;;;;;;;;5020588;28;20236;-86
2020/12/22 14:38:48;;;;;;;0.80;0.80;;;;;;;;;;5020717;28;20184;-87
2020/12/22 14:41:15;;;;;;;0.60;0.60;;;;;;;;;;5020523;28;20442;-87
2020/12/22 14:43:43;;;;;;;0.75;0.75;;;;;;;;;;5020610;28;20184;-86
2020/12/22 14:46:14;;;;;;;0.70;0.70;;;;;;;;;;5021490;28;20187;-86
2020/12/22 14:48:41;;;;;;;0.63;0.63;;;;;;;;;;5020807;28;20183;-86
2020/12/22 14:51:10;;;;;;;0.60;0.60;;;;;;;;;;5020831;28;20540;-86
2020/12/22 14:53:37;;;;;;;0.73;0.73;;;;;;;;;;5021139;28;20195;-86
2020/12/22 14:56:11;;;;;;;1.17;1.17;;;;;;;;;;5019822;28;20606;-89
2020/12/22 14:58:38;;;;;;;0.63;0.63;;;;;;;;;;5021308;28;20229;-87
2020/12/22 15:01:05;;;;;;;1.77;1.00;;;;;;;;;;5020722;28;20183;-86
2020/12/22 15:03:34;;;;;;;1.15;0.85;;;;;;;;;;5020769;28;20541;-86
2020/12/22 15:06:01;;;;;;;1.35;0.60;;;;;;;;;;5019566;28;20659;-86
2020/12/22 15:08:29;;;;;;;1.00;0.85;;;;;;;;;;5020627;28;20217;-86
2020/12/22 15:10:56;;;;;;;0.50;0.50;;;;;;;;;;5020413;28;20209;-87
2020/12/22 15:13:23;;;;;;;0.70;0.70;;;;;;;;;;5020266;28;20183;-86
2020/12/22 15:15:50;;;;;;;0.77;0.70;;;;;;;;;;5020390;28;20337;-87
2020/12/22 15:18:17;;;;;;;0.45;0.45;;;;;;;;;;5020746;28;20278;-88
2020/12/22 15:20:45;;;;;;;1.38;0.80;;;;;;;;;;5019910;28;20183;-87
2020/12/22 15:23:39;;;;;;;0.70;0.70;;;;;;;;;;5020210;28;20203;-87
2020/12/22 15:26:06;;;;;;;1.48;1.00;;;;;;;;;;5018539;28;20233;-87
2020/12/22 15:28:33;;;;;;;1.55;0.60;;;;;;;;;;5019257;28;20209;-87
2020/12/22 15:31:00;;;;;;;1.80;0.90;;;;;;;;;;5019845;28;20201;-88
2020/12/22 15:33:27;;;;;;;0.80;0.80;;;;;;;;;;5020178;28;20211;-87
2020/12/22 15:35:55;;;;;;;0.65;0.65;;;;;;;;;;5019765;28;20188;-87
2020/12/22 15:38:22;;;;;;;0.90;0.90;;;;;;;;;;5020216;28;20199;-86
2020/12/22 15:41:05;;;;;;;0.50;0.50;;;;;;;;;;5019613;28;20199;-93
2020/12/22 15:43:32;;;;;;;4.68;1.35;;;;;;;;;;5020859;28;20206;-96
2020/12/22 15:45:59;;;;;;;0.90;0.90;;;;;;;;;;5019625;28;20219;-92
2020/12/22 15:48:36;;;;;;;;;;;;;;;;;;;;;
2020/12/22 15:51:08;;;;;;;1.00;0.68;;;;;;;;;;5019758;28;20183;-91
2020/12/22 15:53:38;;;;;;;0.95;0.90;;;;;;;;;;5020132;28;20451;-90